Time;durP1;ratioP1;P1;durP2;ratioP2;P2;SDS_P1;SDS_P2;PMS_P1;PMS_P2;Temp;Humidity;BMP_temperature;BMP_pressure;BME280_temperature;BME280_humidity;BME280_pressure;Samples;Min_cycle;Max_cycle;Signal;HPM_P1;HPM_P2
2022/03/04 00:00:49;;;;;;;19.50;11.90;;;;;;;1.03;91.70;98937.09;109521;1273;22443;-62
2022/03/04 00:03:19;;;;;;;20.80;13.40;;;;;;;1.03;91.56;98937.84;109256;1273;137985;-63
2022/03/04 00:05:47;;;;;;;19.90;12.50;;;;;;;1.03;91.64;98940.11;109535;1271;22393;-62
2022/03/04 00:08:14;;;;;;;16.40;10.90;;;;;;;1.02;91.36;98935.08;109329;1271;138154;-62
2022/03/04 00:10:42;;;;;;;18.00;11.00;;;;;;;1.03;91.55;98931.73;109502;1273;22468;-62
2022/03/04 00:13:10;;;;;;;19.10;11.30;;;;;;;1.04;91.64;98931.11;109254;1273;137999;-62
2022/03/04 00:15:39;;;;;;;17.20;10.50;;;;;;;1.02;91.77;98926.96;109494;1273;23492;-62
2022/03/04 00:18:06;;;;;;;16.40;10.90;;;;;;;1.01;91.75;98929.80;109370;1273;22476;-62
2022/03/04 00:20:35;;;;;;;18.60;11.50;;;;;;;1.03;91.74;98926.78;109411;1273;137808;-62
2022/03/04 00:23:03;;;;;;;14.60;10.10;;;;;;;1.03;91.68;98925.25;109475;1273;22504;-62
2022/03/04 00:25:31;;;;;;;14.10;8.90;;;;;;;1.04;91.80;98926.95;109369;1272;138056;-62
2022/03/04 00:27:58;;;;;;;13.10;8.30;;;;;;;1.03;91.53;98926.36;109516;1272;23609;-62
2022/03/04 00:30:26;;;;;;;11.40;7.50;;;;;;;1.00;91.58;98921.60;109392;1273;22471;-62
2022/03/04 00:32:54;;;;;;;12.10;8.30;;;;;;;0.97;91.54;98923.48;109404;1273;138169;-62
2022/03/04 00:35:22;;;;;;;15.50;8.40;;;;;;;0.93;91.48;98924.14;109508;1272;22439;-62
2022/03/04 00:37:50;;;;;;;15.50;8.30;;;;;;;0.90;91.32;98919.11;109424;1271;137576;-62
2022/03/04 00:40:18;;;;;;;10.90;7.00;;;;;;;0.88;91.44;98918.52;109504;1273;22452;-63
2022/03/04 00:42:46;;;;;;;10.10;7.10;;;;;;;0.86;91.39;98914.75;109520;1273;24473;-62
2022/03/04 00:45:14;;;;;;;10.80;6.60;;;;;;;0.84;91.52;98916.58;109430;1271;138624;-62
2022/03/04 00:47:42;;;;;;;10.30;7.00;;;;;;;0.82;91.10;98918.73;109429;1272;23510;-62
2022/03/04 00:50:10;;;;;;;11.90;7.40;;;;;;;0.81;91.25;98920.46;109408;1272;139012;-62
2022/03/04 00:52:38;;;;;;;11.70;7.10;;;;;;;0.80;91.39;98920.66;109358;1273;22415;-62
2022/03/04 00:55:06;;;;;;;11.60;7.50;;;;;;;0.80;91.24;98918.73;109415;1272;139586;-62
2022/03/04 00:57:34;;;;;;;14.20;7.90;;;;;;;0.78;91.24;98918.65;109490;1273;22468;-62
2022/03/04 01:00:03;;;;;;;12.00;7.70;;;;;;;0.76;91.42;98922.61;109481;1273;23131;-63
2022/03/04 01:02:31;;;;;;;11.40;8.20;;;;;;;0.75;91.60;98918.86;109282;1273;138067;-62
2022/03/04 01:04:59;;;;;;;12.00;8.30;;;;;;;0.75;91.42;98922.02;109379;1273;22449;-63
2022/03/04 01:07:27;;;;;;;13.00;8.90;;;;;;;0.75;91.30;98919.77;109430;1271;138572;-62
2022/03/04 01:09:55;;;;;;;13.70;9.00;;;;;;;0.75;91.39;98919.06;109519;1273;22386;-63
2022/03/04 01:12:23;;;;;;;11.60;8.50;;;;;;;0.75;91.30;98921.41;109517;1271;22454;-62
2022/03/04 01:14:53;;;;;;;15.30;9.00;;;;;;;0.75;91.22;98916.58;109398;1273;138180;-62
2022/03/04 01:17:21;;;;;;;13.80;9.00;;;;;;;0.75;91.23;98917.58;105556;1271;22549;-61
2022/03/04 01:19:49;;;;;;;13.50;8.10;;;;;;;0.75;91.59;98915.43;109332;1271;140112;-62
2022/03/04 01:22:17;;;;;;;12.40;9.20;;;;;;;0.74;91.44;98914.31;109533;1273;25744;-62
2022/03/04 01:24:45;;;;;;;11.90;8.40;;;;;;;0.74;91.36;98910.61;109393;1273;22476;-62
2022/03/04 01:27:13;;;;;;;9.90;7.40;;;;;;;0.74;91.45;98913.11;109396;1273;139085;-62
2022/03/04 01:29:40;;;;;;;12.50;7.70;;;;;;;0.72;91.08;98910.83;109504;1271;22491;-62
2022/03/04 01:32:08;;;;;;;10.60;7.30;;;;;;;0.69;91.11;98914.05;109394;1273;138318;-62
2022/03/04 01:34:36;;;;;;;10.70;6.60;;;;;;;0.66;91.22;98914.84;109489;1273;23160;-62
2022/03/04 01:37:04;;;;;;;10.30;7.60;;;;;;;0.64;90.96;98917.23;109376;1271;139388;-60
2022/03/04 01:39:32;;;;;;;11.00;7.20;;;;;;;0.61;90.98;98914.35;109497;1273;23464;-61
2022/03/04 01:42:00;;;;;;;10.50;7.80;;;;;;;0.61;91.00;98913.07;109493;1273;22452;-61
2022/03/04 01:44:28;;;;;;;10.90;7.30;;;;;;;0.61;91.08;98919.01;109429;1272;138332;-62
2022/03/04 01:46:56;;;;;;;13.90;8.30;;;;;;;0.62;91.02;98920.77;109469;1273;22426;-62
2022/03/04 01:49:24;;;;;;;11.90;7.40;;;;;;;0.60;90.86;98921.27;109393;1273;138202;-63
2022/03/04 01:51:52;;;;;;;13.70;8.10;;;;;;;0.57;90.85;98921.08;109527;1273;22409;-61
2022/03/04 01:54:20;;;;;;;12.30;8.40;;;;;;;0.55;90.85;98923.70;109535;1272;22457;-61
2022/03/04 01:56:48;;;;;;;13.80;8.70;;;;;;;0.53;91.18;98925.80;109378;1271;137882;-62
2022/03/04 01:59:16;;;;;;;12.80;8.50;;;;;;;0.53;90.92;98924.73;109572;1273;22273;-61
2022/03/04 02:01:44;;;;;;;16.20;10.10;;;;;;;0.52;90.88;98921.30;109369;1272;138553;-62
2022/03/04 02:04:12;;;;;;;14.50;9.40;;;;;;;0.51;90.78;98923.61;109465;1273;22431;-62
2022/03/04 02:06:40;;;;;;;15.70;9.50;;;;;;;0.50;90.87;98925.38;109536;1271;22395;-62
2022/03/04 02:09:08;;;;;;;13.30;9.00;;;;;;;0.48;91.00;98927.56;109309;1273;138997;-62
2022/03/04 02:11:38;;;;;;;14.30;9.00;;;;;;;0.47;90.67;98927.35;109467;1273;22486;-62
2022/03/04 02:14:06;;;;;;;16.70;9.70;;;;;;;0.46;90.69;98924.91;109438;1273;138353;-62
2022/03/04 02:16:38;;;;;;;17.20;10.80;;;;;;;0.46;90.87;98927.59;109492;1273;22422;-62
2022/03/04 02:19:06;;;;;;;17.00;10.30;;;;;;;0.44;91.09;98924.22;109258;1273;138627;-62
2022/03/04 02:21:35;;;;;;;13.00;9.10;;;;;;;0.42;90.91;98923.79;109535;1272;22508;-63
2022/03/04 02:24:04;;;;;;;16.60;10.90;;;;;;;0.41;90.57;98926.84;109503;1273;22469;-63
2022/03/04 02:26:32;;;;;;;16.10;9.20;;;;;;;0.37;91.14;98923.05;109434;1273;138548;-62
2022/03/04 02:29:00;;;;;;;13.40;8.90;;;;;;;0.39;91.32;98927.25;109494;1273;22412;-62
2022/03/04 02:31:27;;;;;;;13.80;9.00;;;;;;;0.39;91.04;98928.64;109422;1271;138903;-62
2022/03/04 02:33:55;;;;;;;15.70;9.50;;;;;;;0.38;90.98;98930.66;109558;1273;22468;-62
2022/03/04 02:36:23;;;;;;;15.00;9.70;;;;;;;0.37;91.09;98933.31;109454;1271;23288;-62
2022/03/04 02:38:51;;;;;;;13.00;8.60;;;;;;;0.36;90.83;98932.36;109421;1271;139449;-62
2022/03/04 02:41:19;;;;;;;16.70;8.80;;;;;;;0.34;90.86;98934.54;109527;1273;23113;-62
2022/03/04 02:43:47;;;;;;;14.20;9.20;;;;;;;0.34;90.96;98935.27;109405;1272;137760;-62
2022/03/04 02:46:16;;;;;;;15.00;9.30;;;;;;;0.32;90.73;98930.17;107299;1273;23987;-62
2022/03/04 02:48:44;;;;;;;17.60;9.20;;;;;;;0.34;90.98;98939.27;109544;1273;22409;-62
2022/03/04 02:51:12;;;;;;;16.50;9.40;;;;;;;0.35;90.85;98944.84;109389;1273;137778;-62
2022/03/04 02:53:40;;;;;;;13.30;8.60;;;;;;;0.35;90.99;98941.83;109514;1273;22487;-62
2022/03/04 02:56:08;;;;;;;12.90;8.40;;;;;;;0.35;90.93;98944.30;109257;1273;138684;-62
2022/03/04 02:58:36;;;;;;;13.70;9.20;;;;;;;0.34;90.97;98946.45;109433;1273;22463;-62
2022/03/04 03:01:04;;;;;;;14.80;9.10;;;;;;;0.33;90.82;98949.61;109330;1273;139061;-61
2022/03/04 03:03:32;;;;;;;15.20;8.40;;;;;;;0.30;90.83;98952.84;109479;1273;22445;-62
2022/03/04 03:06:00;;;;;;;14.00;8.60;;;;;;;0.29;91.02;98953.02;109522;1271;22489;-62
2022/03/04 03:08:28;;;;;;;13.80;8.50;;;;;;;0.29;90.74;98953.98;109388;1271;139030;-62
2022/03/04 03:10:59;;;;;;;12.70;8.10;;;;;;;0.29;91.12;98953.98;109500;1273;22470;-62
2022/03/04 03:13:27;;;;;;;13.80;8.40;;;;;;;0.29;90.40;98956.77;109349;1273;138643;-62
2022/03/04 03:15:55;;;;;;;11.40;7.20;;;;;;;0.29;90.48;98954.52;109492;1273;22559;-62
2022/03/04 03:18:23;;;;;;;11.10;7.10;;;;;;;0.31;90.45;98955.92;109358;1273;22253;-62
2022/03/04 03:20:51;;;;;;;12.40;8.00;;;;;;;0.33;90.33;98958.36;109391;1273;138076;-62
2022/03/04 03:23:19;;;;;;;11.30;7.10;;;;;;;0.33;90.26;98959.35;109400;1274;22286;-62
2022/03/04 03:25:46;;;;;;;10.60;6.90;;;;;;;0.32;90.07;98959.39;109408;1273;138793;-62
2022/03/04 03:28:14;;;;;;;11.90;7.60;;;;;;;0.31;89.87;98958.92;109523;1272;22978;-62
2022/03/04 03:30:42;;;;;;;14.50;7.70;;;;;;;0.30;89.75;98960.79;109498;1273;22459;-62
2022/03/04 03:33:10;;;;;;;11.70;6.90;;;;;;;0.31;89.54;98956.30;109398;1273;138193;-62
2022/03/04 03:35:38;;;;;;;9.90;6.70;;;;;;;0.30;89.48;98959.75;109416;1274;23164;-62
2022/03/04 03:38:06;;;;;;;13.10;7.30;;;;;;;0.31;89.67;98959.52;109406;1273;137810;-62
2022/03/04 03:40:34;;;;;;;10.70;6.80;;;;;;;0.31;89.48;98960.05;109506;1273;23252;-62
2022/03/04 03:43:21;;;;;;;12.60;7.40;;;;;;;0.30;89.42;98962.11;109380;1271;138967;-62
2022/03/04 03:45:48;;;;;;;11.00;6.80;;;;;;;0.30;89.83;98960.00;109473;1273;22593;-62
2022/03/04 03:48:16;;;;;;;10.20;6.70;;;;;;;0.30;89.73;98965.45;109489;1273;22245;-62
2022/03/04 03:50:44;;;;;;;12.90;7.60;;;;;;;0.31;89.96;98966.23;109388;1273;137763;-62
2022/03/04 03:53:12;;;;;;;12.40;6.50;;;;;;;0.30;89.55;98965.27;109438;1273;22442;-62
2022/03/04 03:55:40;;;;;;;10.30;6.80;;;;;;;0.28;89.19;98967.73;109428;1273;138825;-62
2022/03/04 03:58:08;;;;;;;12.30;6.80;;;;;;;0.26;88.87;98967.93;109450;1273;22421;-62
2022/03/04 04:00:36;;;;;;;11.90;7.20;;;;;;;0.22;88.69;98967.64;109477;1273;22462;-62
2022/03/04 04:03:05;;;;;;;10.20;6.80;;;;;;;0.22;88.89;98970.20;109394;1273;138949;-62
2022/03/04 04:05:33;;;;;;;11.00;6.90;;;;;;;0.22;88.99;98968.54;109345;1274;22452;-63
2022/03/04 04:08:01;;;;;;;12.50;7.20;;;;;;;0.23;88.88;98968.13;109333;1272;138826;-62
2022/03/04 04:10:29;;;;;;;13.00;6.60;;;;;;;0.23;88.73;98968.63;109500;1271;22606;-62
2022/03/04 04:12:57;;;;;;;14.50;7.50;;;;;;;0.21;88.59;98964.66;109465;1273;22409;-62
2022/03/04 04:15:25;;;;;;;15.60;8.00;;;;;;;0.21;88.71;98964.59;109348;1273;138685;-62
2022/03/04 04:17:52;;;;;;;13.90;8.40;;;;;;;0.19;88.33;98966.97;109411;1274;22596;-62
2022/03/04 04:20:21;;;;;;;18.40;10.00;;;;;;;0.19;88.35;98966.14;109413;1273;137856;-62
2022/03/04 04:22:49;;;;;;;20.20;11.60;;;;;;;0.18;88.22;98967.17;109451;1271;22453;-62
2022/03/04 04:25:16;;;;;;;19.60;10.40;;;;;;;0.16;88.49;98966.17;109390;1271;138239;-62
2022/03/04 04:27:44;;;;;;;16.70;11.20;;;;;;;0.15;88.24;98968.48;109477;1273;22460;-62
2022/03/04 04:30:12;;;;;;;15.90;11.90;;;;;;;0.13;88.27;98969.58;109477;1272;22438;-62
2022/03/04 04:32:40;;;;;;;19.70;12.50;;;;;;;0.13;88.48;98966.20;109423;1273;138680;-62
2022/03/04 04:35:09;;;;;;;18.10;12.10;;;;;;;0.13;88.14;98962.28;109471;1273;22477;-62
2022/03/04 04:37:37;;;;;;;21.90;12.90;;;;;;;0.13;88.24;98963.23;109311;1274;138673;-62
2022/03/04 04:40:05;;;;;;;19.90;13.10;;;;;;;0.13;88.25;98963.40;109518;1273;22500;-62
2022/03/04 04:42:33;;;;;;;25.00;11.80;;;;;;;0.14;88.17;98963.65;109496;1273;22535;-63
2022/03/04 04:45:01;;;;;;;21.40;12.70;;;;;;;0.14;88.21;98965.04;109295;1274;139266;-62
2022/03/04 04:47:29;;;;;;;21.90;12.40;;;;;;;0.12;87.99;98963.69;109531;1273;22423;-62
2022/03/04 04:49:57;;;;;;;18.30;11.80;;;;;;;0.11;87.66;98961.73;109368;1271;137983;-62
2022/03/04 04:52:25;;;;;;;21.70;12.30;;;;;;;0.10;88.30;98963.59;109490;1273;22507;-62
2022/03/04 04:54:53;;;;;;;18.70;10.60;;;;;;;0.09;88.05;98963.71;109529;1272;22398;-62
2022/03/04 04:57:21;;;;;;;19.60;11.20;;;;;;;0.10;88.16;98967.88;109364;1273;137826;-63
2022/03/04 04:59:49;;;;;;;20.80;11.10;;;;;;;0.09;87.64;98968.95;109409;1274;23663;-62
2022/03/04 05:02:17;;;;;;;23.00;11.00;;;;;;;0.07;87.95;98965.56;109402;1273;139034;-62
2022/03/04 05:04:45;;;;;;;17.20;12.60;;;;;;;0.08;87.99;98969.43;109480;1271;22360;-62
2022/03/04 05:07:13;;;;;;;18.80;12.90;;;;;;;0.07;87.89;98977.59;109358;1272;138117;-62
2022/03/04 05:09:41;;;;;;;19.80;13.10;;;;;;;0.06;87.70;98975.03;109497;1273;22503;-62
2022/03/04 05:12:09;;;;;;;24.80;14.60;;;;;;;0.07;87.97;98977.89;109506;1273;22447;-63
2022/03/04 05:14:37;;;;;;;22.20;15.20;;;;;;;0.09;88.11;98979.08;109370;1273;138239;-63
2022/03/04 05:17:05;;;;;;;24.30;15.20;;;;;;;0.09;88.05;98980.81;109491;1273;22418;-63
2022/03/04 05:19:33;;;;;;;23.60;15.20;;;;;;;0.08;87.81;98981.14;109378;1273;138164;-63
2022/03/04 05:22:01;;;;;;;24.90;16.20;;;;;;;0.07;88.13;98985.27;109510;1273;22448;-63
2022/03/04 05:24:29;;;;;;;26.60;16.00;;;;;;;0.07;87.97;98984.88;109408;1274;23662;-63
2022/03/04 05:26:57;;;;;;;23.10;15.40;;;;;;;0.09;87.87;98987.65;109353;1273;138862;-63
2022/03/04 05:29:25;;;;;;;23.00;15.20;;;;;;;0.11;87.75;98986.10;109496;1273;23189;-63
2022/03/04 05:31:53;;;;;;;25.20;15.40;;;;;;;0.12;87.72;98988.44;109327;1273;138224;-62
2022/03/04 05:34:21;;;;;;;26.50;14.50;;;;;;;0.13;88.04;98987.96;109477;1272;22496;-63
2022/03/04 05:36:49;;;;;;;22.70;13.00;;;;;;;0.15;87.74;98994.11;109486;1272;23337;-63
2022/03/04 05:39:17;;;;;;;20.60;12.50;;;;;;;0.15;87.68;98993.61;109368;1274;138033;-63
2022/03/04 05:41:45;;;;;;;20.10;13.00;;;;;;;0.15;87.88;98997.58;109473;1273;22493;-63
2022/03/04 05:44:13;;;;;;;19.30;12.30;;;;;;;0.16;87.80;98994.60;109341;1273;137922;-62
2022/03/04 05:46:42;;;;;;;20.60;13.10;;;;;;;0.16;87.91;98992.97;109448;1273;22478;-62
2022/03/04 05:49:10;;;;;;;17.40;11.70;;;;;;;0.20;87.80;98997.22;109381;1273;138410;-62
2022/03/04 05:51:37;;;;;;;19.50;11.70;;;;;;;0.22;87.82;99000.24;109469;1273;22463;-62
2022/03/04 05:54:05;;;;;;;18.60;11.80;;;;;;;0.22;87.48;99004.77;109389;1274;22460;-63
2022/03/04 05:56:33;;;;;;;17.10;11.00;;;;;;;0.24;87.70;99005.35;109314;1273;138219;-63
2022/03/04 05:59:02;;;;;;;17.20;10.60;;;;;;;0.25;87.69;99008.89;109472;1273;22452;-62
2022/03/04 06:01:30;;;;;;;17.20;10.40;;;;;;;0.28;87.68;99016.52;109350;1273;138870;-62
2022/03/04 06:03:58;;;;;;;13.90;9.90;;;;;;;0.30;87.21;99019.27;109425;1273;22258;-63
2022/03/04 06:06:26;;;;;;;18.50;11.00;;;;;;;0.32;87.00;99020.98;109502;1271;22389;-63
2022/03/04 06:08:54;;;;;;;14.80;10.50;;;;;;;0.32;86.93;99023.81;109352;1273;138337;-62
2022/03/04 06:11:22;;;;;;;17.10;10.50;;;;;;;0.31;86.60;99025.01;109449;1273;22963;-62
2022/03/04 06:13:50;;;;;;;16.50;9.20;;;;;;;0.30;86.29;99028.67;109335;1273;138563;-62
2022/03/04 06:16:20;;;;;;;14.90;9.30;;;;;;;0.30;86.19;99028.14;109512;1273;23201;-63
2022/03/04 06:18:48;;;;;;;13.50;8.00;;;;;;;0.29;86.00;99031.92;109482;1273;22419;-62
2022/03/04 06:21:15;;;;;;;14.10;8.50;;;;;;;0.31;86.00;99032.05;109371;1273;137982;-62
2022/03/04 06:23:44;;;;;;;13.30;8.70;;;;;;;0.31;86.05;99035.56;109451;1274;22711;-62
2022/03/04 06:26:13;;;;;;;15.40;9.70;;;;;;;0.31;85.59;99032.88;109386;1273;137919;-62
2022/03/04 06:28:41;;;;;;;15.00;9.40;;;;;;;0.30;85.87;99039.02;109485;1271;23157;-62
2022/03/04 06:31:09;;;;;;;16.10;9.50;;;;;;;0.29;85.73;99039.38;109402;1273;138133;-62
2022/03/04 06:33:39;;;;;;;15.00;8.50;;;;;;;0.31;85.63;99039.14;109481;1272;22422;-63
2022/03/04 06:36:11;;;;;;;15.30;7.90;;;;;;;0.33;85.62;99037.95;109448;1271;22575;-62
2022/03/04 06:38:41;;;;;;;16.00;8.60;;;;;;;0.36;85.40;99039.41;109350;1273;138437;-62
2022/03/04 06:41:09;;;;;;;14.60;8.10;;;;;;;0.38;85.05;99043.13;109469;1273;23339;-62
2022/03/04 06:43:38;;;;;;;17.00;7.90;;;;;;;0.38;85.21;99043.04;109344;1273;137997;-62
2022/03/04 06:46:06;;;;;;;13.20;8.00;;;;;;;0.41;85.21;99040.58;109448;1274;22516;-62
2022/03/04 06:48:35;;;;;;;11.50;7.80;;;;;;;0.41;84.86;99041.48;109478;1273;23307;-62
2022/03/04 06:51:04;;;;;;;15.00;7.90;;;;;;;0.40;84.68;99035.17;109365;1273;137773;-62
2022/03/04 06:53:33;;;;;;;19.00;9.10;;;;;;;0.41;84.64;99041.90;109511;1273;22601;-63
2022/03/04 06:56:00;;;;;;;13.50;6.60;;;;;;;0.43;84.57;99037.98;109350;1273;138753;-62
2022/03/04 06:58:28;;;;;;;15.20;6.90;;;;;;;0.43;83.83;99038.52;109475;1271;22475;-62
2022/03/04 07:00:58;;;;;;;11.30;5.90;;;;;;;0.41;83.67;99038.52;109474;1271;22393;-62
2022/03/04 07:03:26;;;;;;;8.20;6.00;;;;;;;0.41;83.67;99039.80;109359;1271;137819;-62
2022/03/04 07:05:55;;;;;;;11.80;6.40;;;;;;;0.43;83.38;99040.82;108101;1272;22564;-61
2022/03/04 07:08:23;;;;;;;13.20;7.50;;;;;;;0.44;83.13;99042.58;105026;1273;138539;-61
2022/03/04 07:10:51;;;;;;;11.50;7.10;;;;;;;0.43;83.22;99037.52;105136;1273;23076;-61
2022/03/04 07:13:21;;;;;;;12.80;6.80;;;;;;;0.45;82.95;99036.89;109283;1273;138529;-62
2022/03/04 07:15:51;;;;;;;10.80;6.90;;;;;;;0.46;82.91;99036.52;109487;1273;23186;-62
2022/03/04 07:18:20;;;;;;;13.30;7.20;;;;;;;0.47;82.88;99037.60;109489;1273;22799;-62
2022/03/04 07:20:49;;;;;;;19.80;11.20;;;;;;;0.51;83.20;99035.10;109327;1273;137799;-62
2022/03/04 07:23:20;;;;;;;22.00;14.10;;;;;;;0.55;82.98;99037.01;109482;1271;22959;-62
2022/03/04 07:25:48;;;;;;;17.40;10.80;;;;;;;0.59;82.94;99039.30;109331;1273;140200;-62
2022/03/04 07:28:16;;;;;;;25.30;16.40;;;;;;;0.61;82.64;99037.40;109462;1273;22547;-62
2022/03/04 07:30:44;;;;;;;33.70;18.40;;;;;;;0.62;82.23;99040.30;109488;1273;22445;-62
2022/03/04 07:33:12;;;;;;;29.70;18.20;;;;;;;0.61;81.90;99039.42;109365;1273;138053;-62
2022/03/04 07:35:45;;;;;;;29.60;20.50;;;;;;;0.60;81.96;99043.83;109524;1271;22435;-62
2022/03/04 07:38:14;;;;;;;46.30;31.10;;;;;;;0.61;81.91;99042.67;109346;1273;138958;-62
2022/03/04 07:40:44;;;;;;;41.20;30.40;;;;;;;0.61;81.79;99043.67;109444;1272;22597;-62
2022/03/04 07:43:12;;;;;;;47.40;31.70;;;;;;;0.62;81.58;99044.49;109355;1273;138111;-62
2022/03/04 07:45:41;;;;;;;66.20;34.30;;;;;;;0.61;81.51;99044.90;109488;1273;23254;-63
2022/03/04 07:48:09;;;;;;;55.10;34.70;;;;;;;0.63;81.71;99045.20;109429;1273;22503;-63
2022/03/04 07:50:37;;;;;;;57.80;33.80;;;;;;;0.65;81.80;99046.20;109278;1273;138459;-63
2022/03/04 07:53:05;;;;;;;56.70;30.30;;;;;;;0.66;81.81;99042.48;109411;1273;22656;-63
2022/03/04 07:55:33;;;;;;;52.10;29.50;;;;;;;0.67;81.73;99045.05;109362;1271;140004;-63
2022/03/04 07:58:01;;;;;;;54.10;30.90;;;;;;;0.68;81.98;99040.46;109473;1273;23293;-63
2022/03/04 08:00:29;;;;;;;55.20;32.40;;;;;;;0.70;82.37;99039.95;109481;1272;22334;-63
2022/03/04 08:02:57;;;;;;;55.50;31.60;;;;;;;0.74;82.00;99042.72;109316;1273;137941;-63
2022/03/04 08:05:26;;;;;;;43.80;27.10;;;;;;;0.76;81.96;99042.52;109476;1271;22225;-63
2022/03/04 08:07:55;;;;;;;41.80;24.50;;;;;;;0.81;82.18;99043.77;109362;1271;138711;-63
2022/03/04 08:10:23;;;;;;;37.10;24.60;;;;;;;0.84;81.82;99045.46;109434;1273;22470;-63
2022/03/04 08:12:51;;;;;;;31.60;19.50;;;;;;;0.86;81.73;99048.02;109434;1273;22500;-63
2022/03/04 08:15:19;;;;;;;23.00;15.70;;;;;;;0.88;81.54;99049.69;109031;1271;139848;-62
2022/03/04 08:17:47;;;;;;;22.60;15.10;;;;;;;0.89;81.42;99047.08;105052;1274;24018;-62
2022/03/04 08:20:36;;;;;;;;;;;;;;;0.91;81.26;99048.20;105010;1271;138222;-62
2022/03/04 08:23:04;;;;;;;23.50;15.10;;;;;;;0.94;81.17;99045.48;109394;1273;24518;-63
2022/03/04 08:25:32;;;;;;;26.50;17.70;;;;;;;0.98;80.95;99043.17;109333;1273;138450;-63
2022/03/04 08:28:01;;;;;;;26.60;18.30;;;;;;;1.03;81.00;99044.80;109431;1271;23080;-63
2022/03/04 08:30:29;;;;;;;26.10;15.30;;;;;;;1.08;81.10;99047.98;109440;1273;23157;-63
2022/03/04 08:32:57;;;;;;;24.50;15.90;;;;;;;1.14;80.11;99047.40;109371;1273;139479;-63
2022/03/04 08:35:25;;;;;;;21.70;15.80;;;;;;;1.15;79.94;99042.44;109428;1271;22369;-63
2022/03/04 08:37:54;;;;;;;20.70;15.40;;;;;;;1.18;79.75;99046.14;109325;1273;137429;-63
2022/03/04 08:40:22;;;;;;;23.90;16.10;;;;;;;1.25;79.86;99054.44;109458;1273;23403;-63
2022/03/04 08:42:50;;;;;;;23.60;17.20;;;;;;;1.31;79.42;99058.64;109417;1273;23326;-63
2022/03/04 08:45:18;;;;;;;22.40;15.10;;;;;;;1.36;79.43;99052.43;109324;1273;141650;-62
2022/03/04 08:47:46;;;;;;;20.70;15.30;;;;;;;1.43;79.52;99052.33;109490;1271;22476;-63
2022/03/04 08:50:16;;;;;;;24.90;15.50;;;;;;;1.50;79.25;99052.52;109316;1273;138064;-63
2022/03/04 08:52:44;;;;;;;27.90;13.90;;;;;;;1.56;78.76;99052.55;109420;1272;22512;-63
2022/03/04 08:55:14;;;;;;;19.20;13.20;;;;;;;1.61;78.17;99050.16;109201;1273;236737;-63
2022/03/04 08:58:58;;;;;;;23.80;16.10;;;;;;;1.69;78.03;99050.14;101819;1309;545757;-62
2022/03/04 09:01:26;;;;;;;21.70;14.00;;;;;;;1.72;77.83;99049.13;109088;1274;137538;-63
2022/03/04 09:03:55;;;;;;;25.40;14.50;;;;;;;1.78;77.69;99045.67;109093;1277;22537;-62
2022/03/04 09:06:23;;;;;;;20.40;13.10;;;;;;;1.84;77.24;99043.23;109118;1277;22551;-62
2022/03/04 09:08:51;;;;;;;18.00;12.80;;;;;;;1.90;76.75;99044.21;109013;1277;137843;-63
2022/03/04 09:11:20;;;;;;;13.40;9.00;;;;;;;1.95;76.08;99045.90;109164;1277;23188;-62
2022/03/04 09:13:48;;;;;;;14.60;9.50;;;;;;;1.99;75.96;99047.63;109001;1274;220229;-63
2022/03/04 09:16:33;;;;;;;23.00;14.90;;;;;;;2.05;76.32;99050.27;109183;1276;22541;-63
2022/03/04 09:19:02;;;;;;;21.20;13.90;;;;;;;2.09;76.25;99043.14;109273;1276;23739;-63
2022/03/04 09:21:31;;;;;;;19.60;12.60;;;;;;;2.11;76.28;99046.08;109160;1274;138209;-62
2022/03/04 09:23:59;;;;;;;17.20;11.20;;;;;;;2.11;76.12;99044.25;109162;1274;23434;-63
2022/03/04 09:26:27;;;;;;;17.20;11.70;;;;;;;2.16;75.73;99048.11;109173;1274;138928;-62
2022/03/04 09:28:55;;;;;;;17.40;12.70;;;;;;;2.18;75.63;99050.02;109267;1274;23364;-62
2022/03/04 09:31:23;;;;;;;13.80;8.10;;;;;;;2.21;75.48;99049.60;109117;1276;139434;-62
2022/03/04 09:33:51;;;;;;;13.20;8.90;;;;;;;2.22;74.26;99050.27;109314;1274;22463;-63
2022/03/04 09:36:20;;;;;;;11.40;7.40;;;;;;;2.23;73.61;99051.04;109317;1274;22556;-63
2022/03/04 09:38:48;;;;;;;12.70;7.50;;;;;;;2.19;72.81;99047.95;109170;1275;137693;-63
2022/03/04 09:41:16;;;;;;;10.60;8.00;;;;;;;2.19;73.13;99049.11;109273;1274;22561;-62
2022/03/04 09:43:44;;;;;;;14.80;9.20;;;;;;;2.22;73.05;99053.86;109126;1276;137126;-62
2022/03/04 09:46:12;;;;;;;14.70;10.20;;;;;;;2.23;73.39;99046.41;109211;1276;22405;-62
2022/03/04 09:48:44;;;;;;;15.80;10.40;;;;;;;2.23;73.76;99052.90;109281;1274;22623;-62
2022/03/04 09:51:12;;;;;;;12.50;7.70;;;;;;;2.25;73.16;99058.92;109114;1276;137935;-62
2022/03/04 09:53:41;;;;;;;12.70;8.00;;;;;;;2.25;72.56;99053.18;109266;1276;22552;-62
2022/03/04 09:56:09;;;;;;;13.80;9.50;;;;;;;2.25;72.33;99052.80;109126;1276;137478;-62
2022/03/04 09:58:37;;;;;;;22.00;12.70;;;;;;;2.28;72.14;99053.75;109354;1274;24167;-63
2022/03/04 10:01:12;;;;;;;17.00;10.40;;;;;;;2.28;71.31;99050.77;109370;1274;23131;-63
2022/03/04 10:03:45;;;;;;;19.70;11.90;;;;;;;2.29;71.19;99052.38;109076;1275;137091;-63
2022/03/04 10:06:14;;;;;;;15.80;11.30;;;;;;;2.28;71.00;99059.45;109352;1275;22557;-62
2022/03/04 10:08:47;;;;;;;24.50;12.20;;;;;;;2.27;71.02;99055.86;109277;1274;137158;-62
2022/03/04 10:11:25;;;;;;;15.00;8.60;;;;;;;2.26;70.67;99058.42;109265;1274;22883;-62
2022/03/04 10:13:55;;;;;;;11.40;6.90;;;;;;;2.27;69.60;99057.80;109214;1275;137851;-62
2022/03/04 10:16:31;;;;;;;12.00;7.80;;;;;;;2.28;69.64;99054.29;109357;1275;22424;-62
2022/03/04 10:19:11;;;;;;;13.00;9.20;;;;;;;2.30;69.35;99060.06;109340;1274;22479;-64
2022/03/04 10:21:49;;;;;;;19.70;10.70;;;;;;;2.35;69.72;99060.64;109211;1275;138208;-62
2022/03/04 10:24:22;;;;;;;24.20;14.00;;;;;;;2.40;69.91;99067.52;109372;1276;22835;-64
2022/03/04 10:27:06;;;;;;;18.40;11.20;;;;;;;2.43;70.37;99060.36;109110;1274;136966;-62
2022/03/04 10:29:44;;;;;;;20.00;10.20;;;;;;;2.45;69.66;99058.11;109168;1276;22550;-62
2022/03/04 10:32:22;;;;;;;13.60;10.30;;;;;;;2.46;69.84;99060.94;109062;1276;138402;-62
2022/03/04 10:34:55;;;;;;;17.30;11.80;;;;;;;2.48;69.56;99064.31;109215;1276;23118;-62
2022/03/04 10:37:55;;;;;;;18.10;11.70;;;;;;;2.48;69.41;99060.96;109017;1276;139149;-62
2022/03/04 10:40:35;;;;;;;17.20;10.90;;;;;;;2.51;69.83;99058.17;109137;1276;22655;-62
2022/03/04 10:43:05;;;;;;;15.20;9.90;;;;;;;2.54;69.71;99062.02;109135;1276;22487;-62
2022/03/04 10:45:34;;;;;;;15.20;10.00;;;;;;;2.57;69.72;99058.85;109057;1277;137999;-62
2022/03/04 10:48:03;;;;;;;13.40;9.80;;;;;;;2.61;69.81;99057.03;109094;1277;22536;-62
2022/03/04 10:50:33;;;;;;;16.30;11.10;;;;;;;2.62;69.39;99056.85;109041;1276;137716;-63
2022/03/04 10:53:09;;;;;;;15.30;10.10;;;;;;;2.67;69.28;99058.27;109155;1276;22571;-63
2022/03/04 10:55:45;;;;;;;14.10;10.10;;;;;;;2.68;68.61;99055.45;109034;1276;137655;-63
2022/03/04 10:58:42;;;;;;;15.70;10.40;;;;;;;2.69;68.75;99057.10;109170;1276;22471;-63
2022/03/04 11:01:17;;;;;;;15.20;9.80;;;;;;;2.71;68.54;99057.22;109133;1277;22563;-63
2022/03/04 11:03:45;;;;;;;17.30;9.90;;;;;;;2.72;68.81;99053.58;109073;1277;136649;-63
2022/03/04 11:06:14;;;;;;;16.20;11.00;;;;;;;2.72;68.92;99047.88;109126;1277;22474;-63
2022/03/04 11:08:43;;;;;;;19.20;11.30;;;;;;;2.77;68.78;99048.05;109012;1276;138792;-62
2022/03/04 11:11:11;;;;;;;15.20;10.60;;;;;;;2.81;68.51;99048.06;109176;1277;22548;-63
2022/03/04 11:13:42;;;;;;;15.10;10.10;;;;;;;2.85;68.45;99046.14;108994;1277;139245;-63
2022/03/04 11:16:30;;;;;;;17.60;10.10;;;;;;;2.87;68.66;99045.25;109184;1276;22640;-63
2022/03/04 11:18:59;;;;;;;12.90;8.10;;;;;;;2.91;68.70;99043.84;109089;1277;22416;-63
2022/03/04 11:21:26;;;;;;;12.40;9.20;;;;;;;2.95;68.68;99047.70;109072;1277;137669;-62
2022/03/04 11:23:55;;;;;;;16.00;9.10;;;;;;;3.00;68.70;99049.45;109158;1276;22452;-63
2022/03/04 11:26:23;;;;;;;16.00;9.00;;;;;;;3.02;68.00;99045.74;109040;1277;137744;-63
2022/03/04 11:28:52;;;;;;;16.70;8.40;;;;;;;3.01;67.79;99049.89;109115;1277;22571;-63